Time,TemperatureF,DewpointF,PressureIn,WindDirection,WindDirectionDegrees,WindSpeedMPH,WindSpeedGustMPH,Humidity,HourlyPrecipIn,Conditions,Clouds,dailyrainin,SoftwareType,DateUTC
2013-03-05 00:02:00,-999.0,-99.9,30.32,NE,39,4.0,6.0,-999,-99.99,,,-99.99,,2013-03-05 09:02:00,
2013-03-05 00:11:00,-999.0,-99.9,30.32,NE,43,4.0,6.0,-999,-99.99,,,-99.99,,2013-03-05 09:11:00,
2013-03-05 00:22:00,31.0,-99.9,30.32,NNE,29,3.0,5.0,-999,-99.99,,,-99.99,,2013-03-05 09:22:00,
2013-03-05 00:43:00,31.0,-99.9,30.32,North,7,2.0,4.0,-999,-99.99,,,-99.99,,2013-03-05 09:43:00,
2013-03-05 00:52:00,-999.0,-99.9,30.32,NNE,33,4.0,6.0,-999,-99.99,,,-99.99,,2013-03-05 09:52:00,
2013-03-05 01:02:00,-999.0,-99.9,30.32,North,356,5.0,6.0,-999,-99.99,,,-99.99,,2013-03-05 10:02:00,
2013-03-05 01:11:00,-999.0,-99.9,30.31,NNE,20,3.0,5.0,-999,-99.99,,,-99.99,,2013-03-05 10:11:00,
2013-03-05 01:22:00,-999.0,-99.9,30.31,North,3,4.0,4.0,-999,-99.99,,,-99.99,,2013-03-05 10:22:00,
2013-03-05 01:32:00,-999.0,-99.9,30.31,North,11,2.0,6.0,-999,-99.99,,,-99.99,,2013-03-05 10:32:00,
2013-03-05 01:42:00,-999.0,-99.9,30.31,NE,44,2.0,3.0,-999,-99.99,,,-99.99,,2013-03-05 10:42:00,
2013-03-05 01:52:00,31.0,-99.9,30.31,NE,34,2.0,4.0,-999,-99.99,,,-99.99,,2013-03-05 10:52:00,
2013-03-05 02:02:00,-999.0,-99.9,30.31,ENE,71,4.0,5.0,-999,-99.99,,,-99.99,,2013-03-05 11:02:00,
2013-03-05 02:12:00,31.0,-99.9,30.31,ENE,71,4.0,5.0,-999,-99.99,,,-99.99,,2013-03-05 11:12:00,
2013-03-05 02:22:00,-999.0,-99.9,30.30,East,85,2.0,5.0,-999,-99.99,,,-99.99,,2013-03-05 11:22:00,
2013-03-05 02:32:00,-999.0,-99.9,30.30,East,96,2.0,3.0,-999,-99.99,,,-99.99,,2013-03-05 11:32:00,
2013-03-05 02:42:00,-999.0,-99.9,30.30,East,81,2.0,3.0,-999,-99.99,,,-99.99,,2013-03-05 11:42:00,
2013-03-05 02:52:00,-999.0,-99.9,30.30,East,85,4.0,4.0,-999,-99.99,,,-99.99,,2013-03-05 11:52:00,
2013-03-05 03:03:00,-999.0,-99.9,30.29,East,87,5.0,6.0,-999,-99.99,,,-99.99,,2013-03-05 12:03:00,
2013-03-05 03:12:00,-999.0,-99.9,30.29,East,88,4.0,6.0,-999,-99.99,,,-99.99,,2013-03-05 12:12:00,
2013-03-05 03:22:00,29.0,-99.9,30.29,East,89,5.0,5.0,-999,-99.99,,,-99.99,,2013-03-05 12:22:00,
2013-03-05 03:32:00,-999.0,-99.9,30.28,East,90,8.0,9.0,-999,-99.99,,,-99.99,,2013-03-05 12:32:00,
2013-03-05 03:42:00,-999.0,-99.9,30.28,East,93,9.0,11.0,-999,-99.99,,,-99.99,,2013-03-05 12:42:00,
2013-03-05 03:53:00,29.0,-99.9,30.28,East,88,9.0,10.0,-999,-99.99,,,-99.99,,2013-03-05 12:53:00,
2013-03-05 04:02:00,-999.0,-99.9,30.27,East,86,9.0,10.0,-999,-99.99,,,-99.99,,2013-03-05 13:02:00,
2013-03-05 04:12:00,29.0,-99.9,30.27,East,85,9.0,10.0,-999,-99.99,,,-99.99,,2013-03-05 13:12:00,
2013-03-05 04:22:00,-999.0,-99.9,30.26,East,84,11.0,12.0,-999,-99.99,,,-99.99,,2013-03-05 13:22:00,
2013-03-05 04:32:00,-999.0,-99.9,30.26,East,81,10.0,11.0,-999,-99.99,,,-99.99,,2013-03-05 13:32:00,
2013-03-05 04:42:00,-999.0,-99.9,30.26,ENE,61,7.0,9.0,-999,-99.99,,,-99.99,,2013-03-05 13:42:00,
2013-03-05 04:52:00,28.0,-99.9,30.26,NE,51,5.0,8.0,-999,-99.99,,,-99.99,,2013-03-05 13:52:00,
2013-03-05 05:02:00,-999.0,-99.9,30.25,ENE,75,8.0,9.0,-999,-99.99,,,-99.99,,2013-03-05 14:02:00,
2013-03-05 05:11:00,-999.0,-99.9,30.25,ENE,70,8.0,9.0,-999,-99.99,,,-99.99,,2013-03-05 14:11:00,
2013-03-05 05:22:00,28.0,-99.9,30.25,ENE,72,6.0,9.0,-999,-99.99,,,-99.99,,2013-03-05 14:22:00,
2013-03-05 05:32:00,-999.0,-99.9,30.25,NE,56,5.0,7.0,-999,-99.99,,,-99.99,,2013-03-05 14:32:00,
2013-03-05 05:42:00,28.0,-99.9,30.25,ENE,60,5.0,7.0,-999,-99.99,,,-99.99,,2013-03-05 14:42:00,
2013-03-05 05:52:00,-999.0,-99.9,30.24,ENE,77,10.0,11.0,-999,-99.99,,,-99.99,,2013-03-05 14:52:00,
2013-03-05 06:02:00,-999.0,-99.9,30.23,ENE,77,12.0,14.0,-999,-99.99,,,-99.99,,2013-03-05 15:02:00,
2013-03-05 06:11:00,-999.0,-99.9,30.22,ENE,76,14.0,17.0,-999,-99.99,,,-99.99,,2013-03-05 15:11:00,
2013-03-05 06:22:00,29.0,-99.9,30.23,ENE,78,11.0,16.0,-999,-99.99,,,-99.99,,2013-03-05 15:22:00,
2013-03-05 06:32:00,-999.0,-99.9,30.23,ENE,68,8.0,12.0,-999,-99.99,,,-99.99,,2013-03-05 15:32:00,
2013-03-05 06:42:00,-999.0,-99.9,30.23,ENE,73,4.0,7.0,-999,-99.99,,,-99.99,,2013-03-05 15:42:00,
2013-03-05 06:52:00,28.0,-99.9,30.23,ENE,74,1.0,5.0,-999,-99.99,,,-99.99,,2013-03-05 15:52:00,
2013-03-05 07:02:00,-999.0,-99.9,30.23,East,97,1.0,2.0,-999,-99.99,,,-99.99,,2013-03-05 16:02:00,
2013-03-05 07:11:00,28.0,-99.9,30.23,East,80,2.0,3.0,-999,-99.99,,,-99.99,,2013-03-05 16:11:00,
2013-03-05 07:22:00,-999.0,-99.9,30.22,NE,53,1.0,2.0,-999,-99.99,,,-99.99,,2013-03-05 16:22:00,
2013-03-05 07:32:00,-999.0,-99.9,30.22,ENE,78,4.0,5.0,-999,-99.99,,,-99.99,,2013-03-05 16:32:00,
2013-03-05 07:42:00,-999.0,-99.9,30.22,NNE,21,5.0,8.0,-999,-99.99,,,-99.99,,2013-03-05 16:42:00,
2013-03-05 07:52:00,27.0,-99.9,30.22,ENE,71,7.0,8.0,-999,-99.99,,,-99.99,,2013-03-05 16:52:00,
2013-03-05 08:01:00,-999.0,-99.9,30.22,ENE,66,7.0,9.0,-999,-99.99,,,-99.99,,2013-03-05 17:01:00,
2013-03-05 08:11:00,-999.0,-99.9,30.21,ENE,70,8.0,8.0,-999,-99.99,,,-99.99,,2013-03-05 17:11:00,
2013-03-05 08:22:00,27.0,-99.9,30.22,ENE,64,8.0,10.0,-999,-99.99,,,-99.99,,2013-03-05 17:22:00,
2013-03-05 08:32:00,-999.0,-99.9,30.22,NE,56,6.0,9.0,-999,-99.99,,,-99.99,,2013-03-05 17:32:00,
2013-03-05 08:42:00,26.0,-99.9,30.21,ENE,61,6.0,7.0,-999,-99.99,,,-99.99,,2013-03-05 17:42:00,
2013-03-05 08:53:00,-999.0,-99.9,30.21,ENE,61,5.0,7.0,-999,-99.99,,,-99.99,,2013-03-05 17:53:00,
2013-03-05 09:02:00,-999.0,-99.9,30.20,ENE,77,7.0,8.0,-999,-99.99,,,-99.99,,2013-03-05 18:02:00,
2013-03-05 09:11:00,-999.0,-99.9,30.19,ENE,67,7.0,9.0,-999,-99.99,,,-99.99,,2013-03-05 18:11:00,
2013-03-05 09:22:00,27.0,-99.9,30.19,ENE,76,5.0,8.0,-999,-99.99,,,-99.99,,2013-03-05 18:22:00,
2013-03-05 09:32:00,-999.0,-99.9,30.19,ENE,70,5.0,6.0,-999,-99.99,,,-99.99,,2013-03-05 18:32:00,
2013-03-05 09:42:00,-999.0,-99.9,30.19,East,81,8.0,10.0,-999,-99.99,,,-99.99,,2013-03-05 18:42:00,
2013-03-05 09:53:00,28.0,-99.9,30.19,ENE,78,9.0,11.0,-999,-99.99,,,-99.99,,2013-03-05 18:53:00,
2013-03-05 10:02:00,-999.0,-99.9,30.18,East,79,8.0,10.0,-999,-99.99,,,-99.99,,2013-03-05 19:02:00,
2013-03-05 10:11:00,29.0,-99.9,30.18,ENE,70,7.0,12.0,-999,-99.99,,,-99.99,,2013-03-05 19:11:00,
2013-03-05 10:22:00,-999.0,-99.9,30.18,ENE,72,8.0,10.0,-999,-99.99,,,-99.99,,2013-03-05 19:22:00,
2013-03-05 10:32:00,-999.0,-99.9,30.18,ENE,78,7.0,9.0,-999,-99.99,,,-99.99,,2013-03-05 19:32:00,
2013-03-05 10:42:00,-999.0,-99.9,30.18,ENE,72,5.0,8.0,-999,-99.99,,,-99.99,,2013-03-05 19:42:00,
2013-03-05 10:52:00,31.0,-99.9,30.18,ENE,70,4.0,6.0,-999,-99.99,,,-99.99,,2013-03-05 19:52:00,
2013-03-05 11:02:00,-999.0,-99.9,30.17,ENE,74,4.0,5.0,-999,-99.99,,,-99.99,,2013-03-05 20:02:00,
2013-03-05 11:11:00,-999.0,-99.9,30.16,ENE,64,8.0,9.0,-999,-99.99,,,-99.99,,2013-03-05 20:11:00,
2013-03-05 11:22:00,-999.0,-99.9,30.16,ENE,64,8.0,10.0,-999,-99.99,,,-99.99,,2013-03-05 20:22:00,
2013-03-05 11:32:00,-999.0,-99.9,30.16,ENE,76,7.0,11.0,-999,-99.99,,,-99.99,,2013-03-05 20:32:00,
2013-03-05 11:42:00,33.0,-99.9,30.16,ENE,70,6.0,7.0,-999,-99.99,,,-99.99,,2013-03-05 20:42:00,
2013-03-05 11:52:00,34.0,-99.9,30.15,East,92,3.0,6.0,-999,-99.99,,,-99.99,,2013-03-05 20:52:00,
2013-03-05 12:02:00,35.0,-99.9,30.14,NW,321,0.0,2.0,-999,-99.99,,,-99.99,,2013-03-05 21:02:00,
2013-03-05 12:11:00,35.0,-99.9,30.14,NNE,13,2.0,5.0,-999,-99.99,,,-99.99,,2013-03-05 21:11:00,
2013-03-05 12:22:00,35.0,-99.9,30.14,ENE,72,4.0,6.0,-999,-99.99,,,-99.99,,2013-03-05 21:22:00,
2013-03-05 12:32:00,35.0,-99.9,30.14,ENE,72,3.0,7.0,-999,-99.99,,,-99.99,,2013-03-05 21:32:00,
2013-03-05 12:42:00,34.0,-99.9,30.13,North,6,5.0,5.0,-999,-99.99,,,-99.99,,2013-03-05 21:42:00,
2013-03-05 12:52:00,-999.0,-99.9,30.13,North,3,8.0,9.0,-999,-99.99,,,-99.99,,2013-03-05 21:52:00,
2013-03-05 13:01:00,-999.0,-99.9,30.13,NNE,16,6.0,9.0,-999,-99.99,,,-99.99,,2013-03-05 22:01:00,
2013-03-05 13:12:00,33.0,-99.9,30.13,North,8,9.0,11.0,-999,-99.99,,,-99.99,,2013-03-05 22:12:00,
2013-03-05 13:22:00,33.0,-99.9,30.13,NNE,18,9.0,14.0,-999,-99.99,,,-99.99,,2013-03-05 22:22:00,
2013-03-05 13:32:00,33.0,-99.9,30.13,NE,38,7.0,10.0,-999,-99.99,,,-99.99,,2013-03-05 22:32:00,
2013-03-05 13:42:00,33.0,-99.9,30.12,NNE,19,9.0,11.0,-999,-99.99,,,-99.99,,2013-03-05 22:42:00,
2013-03-05 13:52:00,33.0,-99.9,30.12,NNE,26,8.0,11.0,-999,-99.99,,,-99.99,,2013-03-05 22:52:00,
2013-03-05 14:01:00,33.0,-99.9,30.12,NE,39,8.0,9.0,-999,-99.99,,,-99.99,,2013-03-05 23:01:00,
2013-03-05 14:11:00,33.0,-99.9,30.11,NNE,27,4.0,9.0,-999,-99.99,,,-99.99,,2013-03-05 23:11:00,
2013-03-05 14:22:00,33.0,-99.9,30.11,NE,48,5.0,9.0,-999,-99.99,,,-99.99,,2013-03-05 23:22:00,
2013-03-05 14:32:00,33.0,-99.9,30.11,NNE,18,5.0,9.0,-999,-99.99,,,-99.99,,2013-03-05 23:32:00,
2013-03-05 14:42:00,33.0,-99.9,30.11,NE,51,6.0,8.0,-999,-99.99,,,-99.99,,2013-03-05 23:42:00,
2013-03-05 14:53:00,33.0,-99.9,30.10,NNE,33,9.0,11.0,-999,-99.99,,,-99.99,,2013-03-05 23:53:00,
2013-03-05 15:02:00,33.0,-99.9,30.09,NE,49,6.0,8.0,-999,-99.99,,,-99.99,,2013-03-06 00:02:00,
2013-03-05 15:11:00,33.0,-99.9,30.09,ENE,66,7.0,10.0,-999,-99.99,,,-99.99,,2013-03-06 00:11:00,
2013-03-05 15:22:00,33.0,-99.9,30.08,ENE,61,9.0,11.0,-999,-99.99,,,-99.99,,2013-03-06 00:22:00,
2013-03-05 15:32:00,33.0,-99.9,30.08,ENE,63,7.0,10.0,-999,-99.99,,,-99.99,,2013-03-06 00:32:00,
2013-03-05 15:42:00,33.0,-99.9,30.08,NE,56,3.0,7.0,-999,-99.99,,,-99.99,,2013-03-06 00:42:00,
2013-03-05 15:52:00,33.0,-99.9,30.07,ENE,60,4.0,6.0,-999,-99.99,,,-99.99,,2013-03-06 00:52:00,
2013-03-05 16:02:00,33.0,-99.9,30.06,NE,56,9.0,10.0,-999,-99.99,,,-99.99,,2013-03-06 01:02:00,
2013-03-05 16:11:00,33.0,-99.9,30.06,ENE,61,7.0,10.0,-999,-99.99,,,-99.99,,2013-03-06 01:11:00,
2013-03-05 16:22:00,34.0,-99.9,30.06,ENE,64,9.0,11.0,-999,-99.99,,,-99.99,,2013-03-06 01:22:00,
2013-03-05 16:32:00,34.0,-99.9,30.05,ENE,57,10.0,11.0,-999,-99.99,,,-99.99,,2013-03-06 01:32:00,
2013-03-05 16:42:00,35.0,-99.9,30.05,ENE,60,8.0,12.0,-999,-99.99,,,-99.99,,2013-03-06 01:42:00,
2013-03-05 16:52:00,35.0,-99.9,30.05,ENE,66,7.0,9.0,-999,-99.99,,,-99.99,,2013-03-06 01:52:00,
2013-03-05 17:01:00,35.0,-99.9,30.05,ENE,66,9.0,10.0,-999,-99.99,,,-99.99,,2013-03-06 02:01:00,
2013-03-05 17:11:00,35.0,-99.9,30.05,ENE,65,8.0,10.0,-999,-99.99,,,-99.99,,2013-03-06 02:11:00,
2013-03-05 17:22:00,35.0,-99.9,30.04,ENE,67,7.0,10.0,-999,-99.99,,,-99.99,,2013-03-06 02:22:00,
2013-03-05 17:32:00,36.0,-99.9,30.04,ENE,77,7.0,9.0,-999,-99.99,,,-99.99,,2013-03-06 02:32:00,
2013-03-05 17:42:00,36.0,-99.9,30.04,East,80,6.0,9.0,-999,-99.99,,,-99.99,,2013-03-06 02:42:00,
2013-03-05 17:52:00,36.0,-99.9,30.04,ENE,78,6.0,8.0,-999,-99.99,,,-99.99,,2013-03-06 02:52:00,
2013-03-05 18:02:00,35.0,-99.9,30.03,ENE,75,6.0,8.0,-999,-99.99,,,-99.99,,2013-03-06 03:02:00,
2013-03-05 18:11:00,35.0,-99.9,30.03,ENE,69,4.0,7.0,-999,-99.99,,,-99.99,,2013-03-06 03:11:00,
2013-03-05 18:22:00,35.0,-99.9,30.03,North,10,2.0,3.0,-999,-99.99,,,-99.99,,2013-03-06 03:22:00,
2013-03-05 18:32:00,35.0,-99.9,30.03,NNE,19,3.0,4.0,-999,-99.99,,,-99.99,,2013-03-06 03:32:00,
2013-03-05 18:42:00,34.0,-99.9,30.03,NNE,31,3.0,4.0,-999,-99.99,,,-99.99,,2013-03-06 03:42:00,
2013-03-05 18:53:00,34.0,-99.9,30.03,NE,43,2.0,3.0,-999,-99.99,,,-99.99,,2013-03-06 03:53:00,
2013-03-05 19:02:00,-999.0,-99.9,30.02,NE,52,2.0,2.0,-999,-99.99,,,-99.99,,2013-03-06 04:02:00,
2013-03-05 19:11:00,-999.0,-99.9,30.02,NE,49,2.0,2.0,-999,-99.99,,,-99.99,,2013-03-06 04:11:00,
2013-03-05 19:22:00,31.0,-99.9,30.02,ENE,63,2.0,3.0,-999,-99.99,,,-99.99,,2013-03-06 04:22:00,
2013-03-05 19:32:00,-999.0,-99.9,30.02,NE,34,2.0,4.0,-999,-99.99,,,-99.99,,2013-03-06 04:32:00,
2013-03-05 19:42:00,30.0,-99.9,30.02,NE,46,3.0,4.0,-999,-99.99,,,-99.99,,2013-03-06 04:42:00,
2013-03-05 19:52:00,-999.0,-99.9,30.02,NNE,27,1.0,2.0,-999,-99.99,,,-99.99,,2013-03-06 04:52:00,
2013-03-05 20:02:00,-999.0,-99.9,30.02,ENE,59,3.0,4.0,-999,-99.99,,,-99.99,,2013-03-06 05:02:00,
2013-03-05 20:12:00,-999.0,-99.9,30.01,NNE,24,2.0,5.0,-999,-99.99,,,-99.99,,2013-03-06 05:12:00,
2013-03-05 20:23:00,29.0,-99.9,30.01,NNE,26,2.0,3.0,-999,-99.99,,,-99.99,,2013-03-06 05:23:00,
2013-03-05 20:33:00,-999.0,-99.9,30.01,NE,55,4.0,5.0,-999,-99.99,,,-99.99,,2013-03-06 05:33:00,
2013-03-05 20:42:00,-999.0,-99.9,30.01,NE,54,3.0,5.0,-999,-99.99,,,-99.99,,2013-03-06 05:42:00,
2013-03-05 20:52:00,29.0,-99.9,30.01,NE,35,3.0,4.0,-999,-99.99,,,-99.99,,2013-03-06 05:52:00,
2013-03-05 21:02:00,-999.0,-99.9,30.01,ENE,64,4.0,6.0,-999,-99.99,,,-99.99,,2013-03-06 06:02:00,
2013-03-05 21:12:00,29.0,-99.9,30.01,ENE,59,4.0,6.0,-999,-99.99,,,-99.99,,2013-03-06 06:12:00,
2013-03-05 21:22:00,-999.0,-99.9,30.01,ENE,66,8.0,10.0,-999,-99.99,,,-99.99,,2013-03-06 06:22:00,
2013-03-05 21:32:00,-999.0,-99.9,30.00,NE,54,4.0,7.0,-999,-99.99,,,-99.99,,2013-03-06 06:32:00,
2013-03-05 21:42:00,-999.0,-99.9,30.00,NNE,25,4.0,6.0,-999,-99.99,,,-99.99,,2013-03-06 06:42:00,
2013-03-05 21:52:00,-999.0,-99.9,30.00,NNE,17,2.0,4.0,-999,-99.99,,,-99.99,,2013-03-06 06:52:00,
2013-03-05 22:02:00,-999.0,-99.9,29.99,ENE,62,9.0,10.0,-999,-99.99,,,-99.99,,2013-03-06 07:02:00,
2013-03-05 22:11:00,-999.0,-99.9,29.99,ENE,63,9.0,10.0,-999,-99.99,,,-99.99,,2013-03-06 07:11:00,
2013-03-05 22:22:00,29.0,-99.9,29.99,ENE,63,9.0,11.0,-999,-99.99,,,-99.99,,2013-03-06 07:22:00,
2013-03-05 22:32:00,-999.0,-99.9,29.98,ENE,71,7.0,10.0,-999,-99.99,,,-99.99,,2013-03-06 07:32:00,
2013-03-05 22:42:00,28.0,-99.9,29.98,ENE,70,5.0,9.0,-999,-99.99,,,-99.99,,2013-03-06 07:42:00,
2013-03-05 22:52:00,-999.0,-99.9,29.98,ENE,74,6.0,7.0,-999,-99.99,,,-99.99,,2013-03-06 07:52:00,
2013-03-05 23:01:00,-999.0,-99.9,29.98,ENE,78,8.0,9.0,-999,-99.99,,,-99.99,,2013-03-06 08:01:00,
2013-03-05 23:11:00,-999.0,-99.9,29.98,East,82,8.0,10.0,-999,-99.99,,,-99.99,,2013-03-06 08:11:00,
2013-03-05 23:22:00,-999.0,-99.9,29.98,East,81,9.0,10.0,-999,-99.99,,,-99.99,,2013-03-06 08:22:00,
2013-03-05 23:32:00,-999.0,-99.9,29.98,East,85,9.0,11.0,-999,-99.99,,,-99.99,,2013-03-06 08:32:00,
2013-03-05 23:42:00,-999.0,-99.9,29.98,East,85,7.0,9.0,-999,-99.99,,,-99.99,,2013-03-06 08:42:00,
2013-03-05 23:52:00,29.0,-99.9,29.99,East,89,4.0,9.0,-999,-99.99,,,-99.99,,2013-03-06 08:52:00,